sensor_id;sensor_type;location;lat;lon;timestamp;P1;durP1;ratioP1;P2;durP2;ratioP2
14592;SDS011;7383;52.354;9.756;2022-07-29T00:01:09;0.70;;;0.70;;
14592;SDS011;7383;52.354;9.756;2022-07-29T00:03:43;1.02;;;0.80;;
14592;SDS011;7383;52.354;9.756;2022-07-29T00:06:09;0.70;;;0.70;;
14592;SDS011;7383;52.354;9.756;2022-07-29T00:08:35;0.50;;;0.50;;
14592;SDS011;7383;52.354;9.756;2022-07-29T00:11:02;0.50;;;0.50;;
14592;SDS011;7383;52.354;9.756;2022-07-29T00:13:28;0.50;;;0.50;;
14592;SDS011;7383;52.354;9.756;2022-07-29T00:15:56;0.60;;;0.60;;
14592;SDS011;7383;52.354;9.756;2022-07-29T00:18:22;0.70;;;0.60;;
14592;SDS011;7383;52.354;9.756;2022-07-29T00:20:49;0.95;;;0.95;;
14592;SDS011;7383;52.354;9.756;2022-07-29T00:23:15;0.80;;;0.80;;
14592;SDS011;7383;52.354;9.756;2022-07-29T00:25:42;0.70;;;0.70;;
14592;SDS011;7383;52.354;9.756;2022-07-29T00:28:08;1.00;;;0.80;;
14592;SDS011;7383;52.354;9.756;2022-07-29T00:30:34;0.70;;;0.70;;
14592;SDS011;7383;52.354;9.756;2022-07-29T00:33:02;1.13;;;0.80;;
14592;SDS011;7383;52.354;9.756;2022-07-29T00:35:29;0.93;;;0.75;;
14592;SDS011;7383;52.354;9.756;2022-07-29T00:38:10;0.65;;;0.65;;
14592;SDS011;7383;52.354;9.756;2022-07-29T00:40:37;0.93;;;0.70;;
14592;SDS011;7383;52.354;9.756;2022-07-29T00:43:03;0.70;;;0.70;;
14592;SDS011;7383;52.354;9.756;2022-07-29T00:45:30;0.82;;;0.80;;
14592;SDS011;7383;52.354;9.756;2022-07-29T00:47:56;0.70;;;0.70;;
14592;SDS011;7383;52.354;9.756;2022-07-29T00:50:24;0.93;;;0.68;;
14592;SDS011;7383;52.354;9.756;2022-07-29T00:52:51;0.60;;;0.60;;
14592;SDS011;7383;52.354;9.756;2022-07-29T00:55:18;0.60;;;0.60;;
14592;SDS011;7383;52.354;9.756;2022-07-29T00:57:45;1.48;;;0.82;;
14592;SDS011;7383;52.354;9.756;2022-07-29T01:00:12;0.88;;;0.88;;
14592;SDS011;7383;52.354;9.756;2022-07-29T01:02:42;0.75;;;0.75;;
14592;SDS011;7383;52.354;9.756;2022-07-29T01:05:09;0.50;;;0.50;;
14592;SDS011;7383;52.354;9.756;2022-07-29T01:07:39;1.20;;;0.80;;
14592;SDS011;7383;52.354;9.756;2022-07-29T01:10:06;0.88;;;0.73;;
14592;SDS011;7383;52.354;9.756;2022-07-29T01:12:35;1.05;;;0.95;;
14592;SDS011;7383;52.354;9.756;2022-07-29T01:15:04;0.70;;;0.70;;
14592;SDS011;7383;52.354;9.756;2022-07-29T01:17:34;0.90;;;0.70;;
14592;SDS011;7383;52.354;9.756;2022-07-29T01:20:07;0.98;;;0.70;;
14592;SDS011;7383;52.354;9.756;2022-07-29T01:22:52;0.90;;;0.90;;
14592;SDS011;7383;52.354;9.756;2022-07-29T01:25:45;0.60;;;0.60;;
14592;SDS011;7383;52.354;9.756;2022-07-29T01:28:33;0.93;;;0.70;;
14592;SDS011;7383;52.354;9.756;2022-07-29T01:31:05;1.08;;;0.90;;
14592;SDS011;7383;52.354;9.756;2022-07-29T01:33:36;0.88;;;0.88;;
14592;SDS011;7383;52.354;9.756;2022-07-29T01:36:17;0.68;;;0.68;;
14592;SDS011;7383;52.354;9.756;2022-07-29T01:38:52;0.57;;;0.57;;
14592;SDS011;7383;52.354;9.756;2022-07-29T01:41:24;0.80;;;0.70;;
14592;SDS011;7383;52.354;9.756;2022-07-29T01:43:56;0.55;;;0.55;;
14592;SDS011;7383;52.354;9.756;2022-07-29T01:46:26;0.68;;;0.68;;
14592;SDS011;7383;52.354;9.756;2022-07-29T01:48:57;0.68;;;0.68;;
14592;SDS011;7383;52.354;9.756;2022-07-29T01:51:29;0.50;;;0.50;;
14592;SDS011;7383;52.354;9.756;2022-07-29T01:53:59;0.80;;;0.80;;
14592;SDS011;7383;52.354;9.756;2022-07-29T01:56:30;0.98;;;0.55;;
14592;SDS011;7383;52.354;9.756;2022-07-29T01:59:00;1.10;;;1.00;;
14592;SDS011;7383;52.354;9.756;2022-07-29T02:01:29;1.85;;;0.80;;
14592;SDS011;7383;52.354;9.756;2022-07-29T02:03:57;1.33;;;0.80;;
14592;SDS011;7383;52.354;9.756;2022-07-29T02:06:29;0.70;;;0.70;;
14592;SDS011;7383;52.354;9.756;2022-07-29T02:08:58;0.80;;;0.60;;
14592;SDS011;7383;52.354;9.756;2022-07-29T02:11:25;1.55;;;0.90;;
14592;SDS011;7383;52.354;9.756;2022-07-29T02:13:52;1.85;;;0.70;;
14592;SDS011;7383;52.354;9.756;2022-07-29T02:16:23;0.70;;;0.70;;
14592;SDS011;7383;52.354;9.756;2022-07-29T02:18:54;0.70;;;0.70;;
14592;SDS011;7383;52.354;9.756;2022-07-29T02:21:24;1.23;;;0.80;;
14592;SDS011;7383;52.354;9.756;2022-07-29T02:23:53;0.80;;;0.80;;
14592;SDS011;7383;52.354;9.756;2022-07-29T02:26:22;0.65;;;0.65;;
14592;SDS011;7383;52.354;9.756;2022-07-29T02:28:50;0.88;;;0.70;;
14592;SDS011;7383;52.354;9.756;2022-07-29T02:31:21;0.98;;;0.70;;
14592;SDS011;7383;52.354;9.756;2022-07-29T02:33:51;0.75;;;0.75;;
14592;SDS011;7383;52.354;9.756;2022-07-29T02:36:21;0.77;;;0.77;;
14592;SDS011;7383;52.354;9.756;2022-07-29T02:38:48;1.05;;;0.70;;
14592;SDS011;7383;52.354;9.756;2022-07-29T02:41:17;0.80;;;0.80;;
14592;SDS011;7383;52.354;9.756;2022-07-29T02:43:50;0.90;;;0.80;;
14592;SDS011;7383;52.354;9.756;2022-07-29T02:46:23;0.70;;;0.70;;
14592;SDS011;7383;52.354;9.756;2022-07-29T02:48:56;0.70;;;0.70;;
14592;SDS011;7383;52.354;9.756;2022-07-29T02:51:28;0.60;;;0.60;;
14592;SDS011;7383;52.354;9.756;2022-07-29T02:54:00;0.82;;;0.70;;
14592;SDS011;7383;52.354;9.756;2022-07-29T02:56:32;0.70;;;0.70;;
14592;SDS011;7383;52.354;9.756;2022-07-29T02:59:02;1.13;;;1.02;;
14592;SDS011;7383;52.354;9.756;2022-07-29T03:01:32;0.70;;;0.70;;
14592;SDS011;7383;52.354;9.756;2022-07-29T03:04:02;0.95;;;0.90;;
14592;SDS011;7383;52.354;9.756;2022-07-29T03:06:30;0.80;;;0.80;;
14592;SDS011;7383;52.354;9.756;2022-07-29T03:08:59;0.90;;;0.80;;
14592;SDS011;7383;52.354;9.756;2022-07-29T03:11:26;0.70;;;0.70;;
14592;SDS011;7383;52.354;9.756;2022-07-29T03:13:53;0.80;;;0.80;;
14592;SDS011;7383;52.354;9.756;2022-07-29T03:16:20;0.80;;;0.80;;
14592;SDS011;7383;52.354;9.756;2022-07-29T03:18:50;1.23;;;0.80;;
14592;SDS011;7383;52.354;9.756;2022-07-29T03:21:16;1.25;;;0.80;;
14592;SDS011;7383;52.354;9.756;2022-07-29T03:23:43;0.70;;;0.70;;
14592;SDS011;7383;52.354;9.756;2022-07-29T03:26:10;0.75;;;0.70;;
14592;SDS011;7383;52.354;9.756;2022-07-29T03:28:36;1.08;;;0.98;;
14592;SDS011;7383;52.354;9.756;2022-07-29T03:31:03;0.80;;;0.80;;
14592;SDS011;7383;52.354;9.756;2022-07-29T03:33:29;1.00;;;1.00;;
14592;SDS011;7383;52.354;9.756;2022-07-29T03:35:57;0.95;;;0.95;;
14592;SDS011;7383;52.354;9.756;2022-07-29T03:38:27;0.77;;;0.77;;
14592;SDS011;7383;52.354;9.756;2022-07-29T03:40:57;1.05;;;0.90;;
14592;SDS011;7383;52.354;9.756;2022-07-29T03:43:27;1.00;;;0.77;;
14592;SDS011;7383;52.354;9.756;2022-07-29T03:45:59;1.25;;;1.20;;
14592;SDS011;7383;52.354;9.756;2022-07-29T03:48:28;1.00;;;0.90;;
14592;SDS011;7383;52.354;9.756;2022-07-29T03:51:00;1.23;;;0.80;;
14592;SDS011;7383;52.354;9.756;2022-07-29T03:53:28;1.55;;;1.00;;
14592;SDS011;7383;52.354;9.756;2022-07-29T03:55:55;1.05;;;0.90;;
14592;SDS011;7383;52.354;9.756;2022-07-29T03:58:26;0.90;;;0.82;;
14592;SDS011;7383;52.354;9.756;2022-07-29T04:00:53;0.95;;;0.90;;
14592;SDS011;7383;52.354;9.756;2022-07-29T04:03:20;1.20;;;0.82;;
14592;SDS011;7383;52.354;9.756;2022-07-29T04:05:57;1.00;;;1.00;;
14592;SDS011;7383;52.354;9.756;2022-07-29T04:08:25;1.00;;;1.00;;
14592;SDS011;7383;52.354;9.756;2022-07-29T04:10:52;0.82;;;0.82;;
14592;SDS011;7383;52.354;9.756;2022-07-29T04:13:19;1.35;;;1.25;;
14592;SDS011;7383;52.354;9.756;2022-07-29T04:15:46;1.20;;;1.10;;
14592;SDS011;7383;52.354;9.756;2022-07-29T04:18:12;1.48;;;0.90;;
14592;SDS011;7383;52.354;9.756;2022-07-29T04:20:38;1.30;;;1.20;;
14592;SDS011;7383;52.354;9.756;2022-07-29T04:23:05;2.15;;;1.25;;
14592;SDS011;7383;52.354;9.756;2022-07-29T04:25:32;0.93;;;0.93;;
14592;SDS011;7383;52.354;9.756;2022-07-29T04:27:59;1.10;;;1.00;;
14592;SDS011;7383;52.354;9.756;2022-07-29T04:30:28;1.00;;;1.00;;
14592;SDS011;7383;52.354;9.756;2022-07-29T04:32:55;1.08;;;0.88;;
14592;SDS011;7383;52.354;9.756;2022-07-29T04:35:22;0.85;;;0.82;;
14592;SDS011;7383;52.354;9.756;2022-07-29T04:37:48;1.10;;;1.10;;
14592;SDS011;7383;52.354;9.756;2022-07-29T04:40:15;1.02;;;1.00;;
14592;SDS011;7383;52.354;9.756;2022-07-29T04:42:42;0.77;;;0.77;;
14592;SDS011;7383;52.354;9.756;2022-07-29T04:45:09;1.17;;;1.08;;
14592;SDS011;7383;52.354;9.756;2022-07-29T04:47:35;1.25;;;1.10;;
14592;SDS011;7383;52.354;9.756;2022-07-29T04:50:02;0.82;;;0.82;;
14592;SDS011;7383;52.354;9.756;2022-07-29T04:52:30;1.58;;;1.00;;
14592;SDS011;7383;52.354;9.756;2022-07-29T04:54:56;2.35;;;1.30;;
14592;SDS011;7383;52.354;9.756;2022-07-29T04:57:22;1.98;;;1.27;;
14592;SDS011;7383;52.354;9.756;2022-07-29T04:59:50;1.08;;;0.98;;
14592;SDS011;7383;52.354;9.756;2022-07-29T05:02:17;0.85;;;0.85;;
14592;SDS011;7383;52.354;9.756;2022-07-29T05:04:43;0.90;;;0.90;;
14592;SDS011;7383;52.354;9.756;2022-07-29T05:07:09;1.50;;;1.20;;
14592;SDS011;7383;52.354;9.756;2022-07-29T05:09:36;1.98;;;1.20;;
14592;SDS011;7383;52.354;9.756;2022-07-29T05:12:02;1.63;;;1.35;;
14592;SDS011;7383;52.354;9.756;2022-07-29T05:14:29;0.80;;;0.80;;
14592;SDS011;7383;52.354;9.756;2022-07-29T05:16:57;1.65;;;1.25;;
14592;SDS011;7383;52.354;9.756;2022-07-29T05:19:23;0.98;;;0.98;;
14592;SDS011;7383;52.354;9.756;2022-07-29T05:21:49;1.00;;;1.00;;
14592;SDS011;7383;52.354;9.756;2022-07-29T05:24:16;1.20;;;1.10;;
14592;SDS011;7383;52.354;9.756;2022-07-29T05:26:42;1.00;;;1.00;;
14592;SDS011;7383;52.354;9.756;2022-07-29T05:29:12;1.15;;;1.05;;
14592;SDS011;7383;52.354;9.756;2022-07-29T05:31:38;1.38;;;1.20;;
14592;SDS011;7383;52.354;9.756;2022-07-29T05:34:06;1.05;;;0.93;;
14592;SDS011;7383;52.354;9.756;2022-07-29T05:36:32;1.10;;;1.10;;
14592;SDS011;7383;52.354;9.756;2022-07-29T05:38:59;1.55;;;1.30;;
14592;SDS011;7383;52.354;9.756;2022-07-29T05:41:25;1.50;;;1.40;;
14592;SDS011;7383;52.354;9.756;2022-07-29T05:43:52;1.38;;;1.00;;
14592;SDS011;7383;52.354;9.756;2022-07-29T05:46:18;1.38;;;1.27;;
14592;SDS011;7383;52.354;9.756;2022-07-29T05:48:45;1.75;;;1.15;;
14592;SDS011;7383;52.354;9.756;2022-07-29T05:51:13;1.10;;;1.00;;
14592;SDS011;7383;52.354;9.756;2022-07-29T05:53:39;1.77;;;1.10;;
14592;SDS011;7383;52.354;9.756;2022-07-29T05:56:06;1.83;;;1.20;;
14592;SDS011;7383;52.354;9.756;2022-07-29T05:58:33;1.23;;;1.20;;
14592;SDS011;7383;52.354;9.756;2022-07-29T06:00:59;1.27;;;1.10;;
14592;SDS011;7383;52.354;9.756;2022-07-29T06:03:26;1.58;;;1.48;;
14592;SDS011;7383;52.354;9.756;2022-07-29T06:05:52;1.13;;;1.00;;
14592;SDS011;7383;52.354;9.756;2022-07-29T06:08:29;1.20;;;1.10;;
14592;SDS011;7383;52.354;9.756;2022-07-29T06:10:56;2.47;;;1.20;;
14592;SDS011;7383;52.354;9.756;2022-07-29T06:13:29;0.98;;;0.95;;
14592;SDS011;7383;52.354;9.756;2022-07-29T06:15:55;1.13;;;1.00;;
14592;SDS011;7383;52.354;9.756;2022-07-29T06:18:22;1.30;;;1.20;;
14592;SDS011;7383;52.354;9.756;2022-07-29T06:20:50;1.30;;;1.20;;
14592;SDS011;7383;52.354;9.756;2022-07-29T06:26:11;1.30;;;1.20;;
14592;SDS011;7383;52.354;9.756;2022-07-29T06:28:37;1.48;;;1.20;;
14592;SDS011;7383;52.354;9.756;2022-07-29T06:31:04;1.23;;;1.13;;
14592;SDS011;7383;52.354;9.756;2022-07-29T06:33:31;0.90;;;0.90;;
14592;SDS011;7383;52.354;9.756;2022-07-29T06:35:58;1.30;;;1.20;;
14592;SDS011;7383;52.354;9.756;2022-07-29T06:38:26;1.50;;;1.40;;
14592;SDS011;7383;52.354;9.756;2022-07-29T06:40:54;1.40;;;1.30;;
14592;SDS011;7383;52.354;9.756;2022-07-29T06:43:27;2.17;;;1.55;;
14592;SDS011;7383;52.354;9.756;2022-07-29T06:45:57;1.52;;;1.20;;
14592;SDS011;7383;52.354;9.756;2022-07-29T06:48:24;1.25;;;1.17;;
14592;SDS011;7383;52.354;9.756;2022-07-29T06:50:51;1.40;;;1.30;;
14592;SDS011;7383;52.354;9.756;2022-07-29T06:53:18;1.23;;;1.10;;
14592;SDS011;7383;52.354;9.756;2022-07-29T06:55:47;1.40;;;1.30;;
14592;SDS011;7383;52.354;9.756;2022-07-29T06:58:15;1.45;;;1.30;;
14592;SDS011;7383;52.354;9.756;2022-07-29T07:00:43;1.33;;;1.23;;
14592;SDS011;7383;52.354;9.756;2022-07-29T07:03:10;2.45;;;1.70;;
14592;SDS011;7383;52.354;9.756;2022-07-29T07:05:36;1.50;;;1.40;;
14592;SDS011;7383;52.354;9.756;2022-07-29T07:08:03;2.13;;;1.65;;
14592;SDS011;7383;52.354;9.756;2022-07-29T07:10:40;1.77;;;1.50;;
14592;SDS011;7383;52.354;9.756;2022-07-29T07:13:07;1.90;;;1.75;;
14592;SDS011;7383;52.354;9.756;2022-07-29T07:15:35;1.90;;;1.30;;
14592;SDS011;7383;52.354;9.756;2022-07-29T07:18:01;1.83;;;1.50;;
14592;SDS011;7383;52.354;9.756;2022-07-29T07:20:28;1.10;;;1.10;;
14592;SDS011;7383;52.354;9.756;2022-07-29T07:22:54;1.27;;;1.17;;
14592;SDS011;7383;52.354;9.756;2022-07-29T07:25:21;1.42;;;1.33;;
14592;SDS011;7383;52.354;9.756;2022-07-29T07:27:48;1.30;;;1.20;;
14592;SDS011;7383;52.354;9.756;2022-07-29T07:30:15;1.63;;;1.20;;
14592;SDS011;7383;52.354;9.756;2022-07-29T07:32:45;1.45;;;1.27;;
14592;SDS011;7383;52.354;9.756;2022-07-29T07:35:13;1.40;;;1.30;;
14592;SDS011;7383;52.354;9.756;2022-07-29T07:37:40;2.28;;;1.50;;
14592;SDS011;7383;52.354;9.756;2022-07-29T07:40:10;1.42;;;1.42;;
14592;SDS011;7383;52.354;9.756;2022-07-29T07:42:40;1.50;;;1.23;;
14592;SDS011;7383;52.354;9.756;2022-07-29T07:45:08;1.75;;;1.40;;
14592;SDS011;7383;52.354;9.756;2022-07-29T07:47:35;1.40;;;1.30;;
14592;SDS011;7383;52.354;9.756;2022-07-29T07:50:05;1.60;;;1.33;;
14592;SDS011;7383;52.354;9.756;2022-07-29T07:52:33;1.58;;;1.48;;
14592;SDS011;7383;52.354;9.756;2022-07-29T07:55:00;1.48;;;1.38;;
14592;SDS011;7383;52.354;9.756;2022-07-29T07:57:26;1.50;;;1.40;;
14592;SDS011;7383;52.354;9.756;2022-07-29T07:59:53;1.50;;;1.40;;
14592;SDS011;7383;52.354;9.756;2022-07-29T08:02:19;1.42;;;1.27;;
14592;SDS011;7383;52.354;9.756;2022-07-29T08:04:46;1.80;;;1.70;;
14592;SDS011;7383;52.354;9.756;2022-07-29T08:07:13;1.70;;;1.60;;
14592;SDS011;7383;52.354;9.756;2022-07-29T08:09:40;1.48;;;1.40;;
14592;SDS011;7383;52.354;9.756;2022-07-29T08:12:07;1.60;;;1.50;;
14592;SDS011;7383;52.354;9.756;2022-07-29T08:14:33;1.52;;;1.42;;
14592;SDS011;7383;52.354;9.756;2022-07-29T08:17:00;1.70;;;1.60;;
14592;SDS011;7383;52.354;9.756;2022-07-29T08:19:26;2.17;;;1.77;;
14592;SDS011;7383;52.354;9.756;2022-07-29T08:21:53;1.67;;;1.40;;
14592;SDS011;7383;52.354;9.756;2022-07-29T08:24:21;1.40;;;1.40;;
14592;SDS011;7383;52.354;9.756;2022-07-29T08:27:06;2.83;;;2.10;;
14592;SDS011;7383;52.354;9.756;2022-07-29T08:29:32;3.03;;;1.80;;
14592;SDS011;7383;52.354;9.756;2022-07-29T08:32:00;1.60;;;1.50;;
14592;SDS011;7383;52.354;9.756;2022-07-29T08:34:27;1.60;;;1.50;;
14592;SDS011;7383;52.354;9.756;2022-07-29T08:36:53;1.77;;;1.52;;
14592;SDS011;7383;52.354;9.756;2022-07-29T08:39:21;1.60;;;1.50;;
14592;SDS011;7383;52.354;9.756;2022-07-29T08:41:48;1.60;;;1.50;;
14592;SDS011;7383;52.354;9.756;2022-07-29T08:44:15;1.60;;;1.45;;
14592;SDS011;7383;52.354;9.756;2022-07-29T08:46:42;1.77;;;1.67;;
14592;SDS011;7383;52.354;9.756;2022-07-29T08:49:09;1.42;;;1.25;;
14592;SDS011;7383;52.354;9.756;2022-07-29T08:51:35;1.42;;;1.38;;
14592;SDS011;7383;52.354;9.756;2022-07-29T08:54:02;1.73;;;1.60;;
14592;SDS011;7383;52.354;9.756;2022-07-29T08:56:30;1.95;;;1.67;;
14592;SDS011;7383;52.354;9.756;2022-07-29T08:58:57;1.75;;;1.65;;
14592;SDS011;7383;52.354;9.756;2022-07-29T09:01:24;1.52;;;1.42;;
14592;SDS011;7383;52.354;9.756;2022-07-29T09:03:54;2.35;;;1.70;;
14592;SDS011;7383;52.354;9.756;2022-07-29T09:06:20;2.80;;;1.70;;
14592;SDS011;7383;52.354;9.756;2022-07-29T09:08:48;2.58;;;2.08;;
14592;SDS011;7383;52.354;9.756;2022-07-29T09:11:15;3.03;;;1.67;;
14592;SDS011;7383;52.354;9.756;2022-07-29T09:13:43;3.30;;;1.70;;
14592;SDS011;7383;52.354;9.756;2022-07-29T09:16:09;2.22;;;1.58;;
14592;SDS011;7383;52.354;9.756;2022-07-29T09:18:36;1.80;;;1.70;;
14592;SDS011;7383;52.354;9.756;2022-07-29T09:21:04;1.92;;;1.80;;
14592;SDS011;7383;52.354;9.756;2022-07-29T09:24:03;1.83;;;1.65;;
14592;SDS011;7383;52.354;9.756;2022-07-29T09:26:34;1.83;;;1.50;;
14592;SDS011;7383;52.354;9.756;2022-07-29T09:29:08;2.15;;;1.80;;
14592;SDS011;7383;52.354;9.756;2022-07-29T09:31:37;1.90;;;1.80;;
14592;SDS011;7383;52.354;9.756;2022-07-29T09:34:05;1.50;;;1.40;;
14592;SDS011;7383;52.354;9.756;2022-07-29T09:36:38;2.58;;;1.80;;
14592;SDS011;7383;52.354;9.756;2022-07-29T09:39:05;1.98;;;1.88;;
14592;SDS011;7383;52.354;9.756;2022-07-29T09:41:43;1.70;;;1.60;;
14592;SDS011;7383;52.354;9.756;2022-07-29T09:44:12;1.80;;;1.70;;
14592;SDS011;7383;52.354;9.756;2022-07-29T09:46:41;1.80;;;1.70;;
14592;SDS011;7383;52.354;9.756;2022-07-29T09:49:30;1.80;;;1.50;;
14592;SDS011;7383;52.354;9.756;2022-07-29T09:52:01;2.10;;;2.00;;
14592;SDS011;7383;52.354;9.756;2022-07-29T09:54:30;1.70;;;1.60;;
14592;SDS011;7383;52.354;9.756;2022-07-29T09:57:01;1.75;;;1.65;;
14592;SDS011;7383;52.354;9.756;2022-07-29T09:59:31;1.80;;;1.70;;
14592;SDS011;7383;52.354;9.756;2022-07-29T10:02:00;2.05;;;1.83;;
14592;SDS011;7383;52.354;9.756;2022-07-29T10:04:37;1.77;;;1.65;;
14592;SDS011;7383;52.354;9.756;2022-07-29T10:07:04;1.90;;;1.80;;
14592;SDS011;7383;52.354;9.756;2022-07-29T10:09:32;2.10;;;1.85;;
14592;SDS011;7383;52.354;9.756;2022-07-29T10:12:02;1.65;;;1.55;;
14592;SDS011;7383;52.354;9.756;2022-07-29T10:14:31;2.72;;;1.60;;
14592;SDS011;7383;52.354;9.756;2022-07-29T10:16:59;1.77;;;1.67;;
14592;SDS011;7383;52.354;9.756;2022-07-29T10:19:27;1.50;;;1.40;;
14592;SDS011;7383;52.354;9.756;2022-07-29T10:22:05;1.80;;;1.70;;
14592;SDS011;7383;52.354;9.756;2022-07-29T10:24:39;3.08;;;1.98;;
14592;SDS011;7383;52.354;9.756;2022-07-29T10:27:06;1.70;;;1.60;;
14592;SDS011;7383;52.354;9.756;2022-07-29T10:29:42;1.67;;;1.45;;
14592;SDS011;7383;52.354;9.756;2022-07-29T10:32:10;1.60;;;1.50;;
14592;SDS011;7383;52.354;9.756;2022-07-29T10:34:59;1.80;;;1.70;;
14592;SDS011;7383;52.354;9.756;2022-07-29T10:40:33;1.80;;;1.70;;
14592;SDS011;7383;52.354;9.756;2022-07-29T10:43:27;1.30;;;1.30;;
14592;SDS011;7383;52.354;9.756;2022-07-29T10:45:59;1.95;;;1.63;;
14592;SDS011;7383;52.354;9.756;2022-07-29T10:54:36;2.38;;;1.80;;
14592;SDS011;7383;52.354;9.756;2022-07-29T10:57:15;2.00;;;1.80;;
14592;SDS011;7383;52.354;9.756;2022-07-29T10:59:44;2.53;;;1.80;;
14592;SDS011;7383;52.354;9.756;2022-07-29T11:05:13;1.73;;;1.63;;
14592;SDS011;7383;52.354;9.756;2022-07-29T11:10:42;2.13;;;1.90;;
14592;SDS011;7383;52.354;9.756;2022-07-29T11:13:09;1.70;;;1.60;;
14592;SDS011;7383;52.354;9.756;2022-07-29T11:15:51;1.70;;;1.60;;
14592;SDS011;7383;52.354;9.756;2022-07-29T11:18:20;1.48;;;1.38;;
14592;SDS011;7383;52.354;9.756;2022-07-29T11:20:47;2.20;;;1.70;;
14592;SDS011;7383;52.354;9.756;2022-07-29T11:23:18;1.92;;;1.73;;
14592;SDS011;7383;52.354;9.756;2022-07-29T11:28:50;1.67;;;1.58;;
14592;SDS011;7383;52.354;9.756;2022-07-29T11:31:31;3.58;;;1.80;;
14592;SDS011;7383;52.354;9.756;2022-07-29T11:40:08;1.48;;;1.40;;
14592;SDS011;7383;52.354;9.756;2022-07-29T11:42:47;1.38;;;1.35;;
14592;SDS011;7383;52.354;9.756;2022-07-29T11:45:18;1.88;;;1.77;;
14592;SDS011;7383;52.354;9.756;2022-07-29T11:47:48;1.60;;;1.50;;
14592;SDS011;7383;52.354;9.756;2022-07-29T11:50:27;2.08;;;1.92;;
14592;SDS011;7383;52.354;9.756;2022-07-29T11:52:56;1.50;;;1.50;;
14592;SDS011;7383;52.354;9.756;2022-07-29T11:55:24;2.33;;;1.65;;
14592;SDS011;7383;52.354;9.756;2022-07-29T11:57:52;1.45;;;1.38;;
14592;SDS011;7383;52.354;9.756;2022-07-29T12:00:23;1.60;;;1.50;;
14592;SDS011;7383;52.354;9.756;2022-07-29T12:02:52;1.70;;;1.60;;
14592;SDS011;7383;52.354;9.756;2022-07-29T12:05:19;2.25;;;1.90;;
14592;SDS011;7383;52.354;9.756;2022-07-29T12:07:48;1.70;;;1.60;;
14592;SDS011;7383;52.354;9.756;2022-07-29T12:10:14;1.42;;;1.40;;
14592;SDS011;7383;52.354;9.756;2022-07-29T12:12:41;1.73;;;1.63;;
14592;SDS011;7383;52.354;9.756;2022-07-29T12:15:12;1.50;;;1.50;;
14592;SDS011;7383;52.354;9.756;2022-07-29T12:17:39;1.60;;;1.50;;
14592;SDS011;7383;52.354;9.756;2022-07-29T12:20:07;1.80;;;1.70;;
14592;SDS011;7383;52.354;9.756;2022-07-29T12:22:34;2.17;;;1.70;;
14592;SDS011;7383;52.354;9.756;2022-07-29T12:25:06;1.98;;;1.63;;
14592;SDS011;7383;52.354;9.756;2022-07-29T12:27:35;1.63;;;1.52;;
14592;SDS011;7383;52.354;9.756;2022-07-29T12:30:03;1.98;;;1.77;;
14592;SDS011;7383;52.354;9.756;2022-07-29T12:32:32;1.35;;;1.35;;
14592;SDS011;7383;52.354;9.756;2022-07-29T12:35:02;2.60;;;1.70;;
14592;SDS011;7383;52.354;9.756;2022-07-29T12:37:36;1.58;;;1.50;;
14592;SDS011;7383;52.354;9.756;2022-07-29T12:40:08;1.67;;;1.58;;
14592;SDS011;7383;52.354;9.756;2022-07-29T12:42:37;1.67;;;1.58;;
14592;SDS011;7383;52.354;9.756;2022-07-29T12:45:04;1.92;;;1.70;;
14592;SDS011;7383;52.354;9.756;2022-07-29T12:47:32;1.35;;;1.35;;
14592;SDS011;7383;52.354;9.756;2022-07-29T12:50:12;2.45;;;1.67;;
14592;SDS011;7383;52.354;9.756;2022-07-29T12:52:42;1.70;;;1.60;;
14592;SDS011;7383;52.354;9.756;2022-07-29T12:55:11;1.55;;;1.45;;
14592;SDS011;7383;52.354;9.756;2022-07-29T12:57:47;2.55;;;1.50;;
14592;SDS011;7383;52.354;9.756;2022-07-29T13:00:15;1.98;;;1.65;;
14592;SDS011;7383;52.354;9.756;2022-07-29T13:02:43;1.80;;;1.70;;
14592;SDS011;7383;52.354;9.756;2022-07-29T13:05:10;1.60;;;1.50;;
14592;SDS011;7383;52.354;9.756;2022-07-29T13:07:38;2.15;;;1.80;;
14592;SDS011;7383;52.354;9.756;2022-07-29T13:10:13;1.77;;;1.67;;
14592;SDS011;7383;52.354;9.756;2022-07-29T13:13:01;1.95;;;1.83;;
14592;SDS011;7383;52.354;9.756;2022-07-29T13:15:30;1.42;;;1.33;;
14592;SDS011;7383;52.354;9.756;2022-07-29T13:17:57;1.77;;;1.67;;
14592;SDS011;7383;52.354;9.756;2022-07-29T13:20:25;2.00;;;1.90;;
14592;SDS011;7383;52.354;9.756;2022-07-29T13:22:54;1.50;;;1.40;;
14592;SDS011;7383;52.354;9.756;2022-07-29T13:25:27;1.50;;;1.35;;
14592;SDS011;7383;52.354;9.756;2022-07-29T13:27:54;1.60;;;1.60;;
14592;SDS011;7383;52.354;9.756;2022-07-29T13:30:22;1.60;;;1.50;;
14592;SDS011;7383;52.354;9.756;2022-07-29T13:32:49;1.67;;;1.58;;
14592;SDS011;7383;52.354;9.756;2022-07-29T13:35:20;1.98;;;1.88;;
14592;SDS011;7383;52.354;9.756;2022-07-29T13:37:46;1.98;;;1.88;;
14592;SDS011;7383;52.354;9.756;2022-07-29T13:40:13;1.90;;;1.58;;
14592;SDS011;7383;52.354;9.756;2022-07-29T13:42:41;1.60;;;1.60;;
14592;SDS011;7383;52.354;9.756;2022-07-29T13:45:08;1.58;;;1.55;;
14592;SDS011;7383;52.354;9.756;2022-07-29T13:47:37;1.92;;;1.73;;
14592;SDS011;7383;52.354;9.756;2022-07-29T13:50:04;1.98;;;1.83;;
14592;SDS011;7383;52.354;9.756;2022-07-29T13:52:32;1.80;;;1.70;;
14592;SDS011;7383;52.354;9.756;2022-07-29T13:54:59;1.73;;;1.63;;
14592;SDS011;7383;52.354;9.756;2022-07-29T13:57:26;1.90;;;1.75;;
14592;SDS011;7383;52.354;9.756;2022-07-29T13:59:55;2.10;;;2.00;;
14592;SDS011;7383;52.354;9.756;2022-07-29T14:02:22;2.10;;;2.00;;
14592;SDS011;7383;52.354;9.756;2022-07-29T14:04:49;2.20;;;2.10;;
14592;SDS011;7383;52.354;9.756;2022-07-29T14:07:15;2.42;;;2.20;;
14592;SDS011;7383;52.354;9.756;2022-07-29T14:09:42;2.00;;;1.90;;
14592;SDS011;7383;52.354;9.756;2022-07-29T14:12:09;1.88;;;1.77;;
14592;SDS011;7383;52.354;9.756;2022-07-29T14:14:35;1.83;;;1.73;;
14592;SDS011;7383;52.354;9.756;2022-07-29T14:17:03;2.42;;;2.20;;
14592;SDS011;7383;52.354;9.756;2022-07-29T14:19:31;2.17;;;2.00;;
14592;SDS011;7383;52.354;9.756;2022-07-29T14:22:02;2.38;;;2.17;;
14592;SDS011;7383;52.354;9.756;2022-07-29T14:24:29;2.17;;;2.08;;
14592;SDS011;7383;52.354;9.756;2022-07-29T14:26:56;4.32;;;2.65;;
14592;SDS011;7383;52.354;9.756;2022-07-29T14:29:22;2.20;;;2.10;;
14592;SDS011;7383;52.354;9.756;2022-07-29T14:31:49;1.95;;;1.85;;
14592;SDS011;7383;52.354;9.756;2022-07-29T14:34:16;2.33;;;2.22;;
14592;SDS011;7383;52.354;9.756;2022-07-29T14:36:43;1.98;;;1.88;;
14592;SDS011;7383;52.354;9.756;2022-07-29T14:39:09;2.50;;;2.30;;
14592;SDS011;7383;52.354;9.756;2022-07-29T14:41:36;2.20;;;2.00;;
14592;SDS011;7383;52.354;9.756;2022-07-29T14:44:03;2.10;;;2.00;;
14592;SDS011;7383;52.354;9.756;2022-07-29T14:46:29;2.45;;;2.25;;
14592;SDS011;7383;52.354;9.756;2022-07-29T14:48:56;2.15;;;2.05;;
14592;SDS011;7383;52.354;9.756;2022-07-29T14:51:24;2.20;;;2.10;;
14592;SDS011;7383;52.354;9.756;2022-07-29T14:53:51;2.17;;;2.08;;
14592;SDS011;7383;52.354;9.756;2022-07-29T14:56:17;2.45;;;2.25;;
14592;SDS011;7383;52.354;9.756;2022-07-29T14:58:43;2.47;;;2.20;;
14592;SDS011;7383;52.354;9.756;2022-07-29T15:01:13;2.22;;;2.10;;
14592;SDS011;7383;52.354;9.756;2022-07-29T15:03:39;1.95;;;1.83;;
14592;SDS011;7383;52.354;9.756;2022-07-29T15:06:06;2.30;;;2.20;;
14592;SDS011;7383;52.354;9.756;2022-07-29T15:08:34;2.20;;;2.10;;
14592;SDS011;7383;52.354;9.756;2022-07-29T15:11:00;2.30;;;2.10;;
14592;SDS011;7383;52.354;9.756;2022-07-29T15:13:26;2.25;;;2.15;;
14592;SDS011;7383;52.354;9.756;2022-07-29T15:15:53;2.05;;;1.95;;
14592;SDS011;7383;52.354;9.756;2022-07-29T15:18:19;1.95;;;1.85;;
14592;SDS011;7383;52.354;9.756;2022-07-29T15:20:46;2.15;;;2.05;;
14592;SDS011;7383;52.354;9.756;2022-07-29T15:23:12;2.30;;;2.10;;
14592;SDS011;7383;52.354;9.756;2022-07-29T15:25:40;2.17;;;2.08;;
14592;SDS011;7383;52.354;9.756;2022-07-29T15:28:06;1.92;;;1.83;;
14592;SDS011;7383;52.354;9.756;2022-07-29T15:30:33;1.95;;;1.85;;
14592;SDS011;7383;52.354;9.756;2022-07-29T15:33:04;2.40;;;2.20;;
14592;SDS011;7383;52.354;9.756;2022-07-29T15:35:31;2.30;;;2.17;;
14592;SDS011;7383;52.354;9.756;2022-07-29T15:37:57;3.05;;;2.40;;